Illertissen Airport


Codes: EDMI/
Name: Illertissen Airport
City: Illertissen
Country: Germany
Elevation: 1680 ft.

Photos at Illertissen Airport


   Photos courtesy of SpottingLog. You can add your own sightings and photos by signing up for a free trial today.



No photos found.

Weather at Illertissen Airport


Time (UTC)DescriptionTempratureWindCloud coverageVisibilityPressureHumidity
25-Jun-2024 12:00Scattered Clouds25°C13 mph, NE28%10000m1012hPa58%
25-Jun-2024 15:00Scattered Clouds24°C11 mph, NE41%10000m1011hPa63%
25-Jun-2024 18:00Broken Clouds22°C7 mph, NE56%10000m1011hPa76%
25-Jun-2024 21:00Light Rain17°C7 mph, N17%10000m1010hPa93%
26-Jun-2024 00:00Moderate Rain15°C2 mph, SW21%10000m1011hPa96%
26-Jun-2024 03:00Light Rain14°C4 mph, SW46%10000m1010hPa97%
26-Jun-2024 06:00Broken Clouds17°C7 mph, SW56%10000m1011hPa94%
26-Jun-2024 09:00Overcast Clouds20°C7 mph, W91%10000m1010hPa83%
26-Jun-2024 12:00Light Rain22°C4 mph, W95%10000m1010hPa79%
26-Jun-2024 15:00Light Rain23°C2 mph, NE84%10000m1009hPa75%
26-Jun-2024 18:00Moderate Rain21°C2 mph, NE85%10000m1009hPa82%
26-Jun-2024 21:00Light Rain17°C13 mph, SW100%10000m1010hPa95%
27-Jun-2024 00:00Light Rain16°C11 mph, SW97%10000m1011hPa96%
27-Jun-2024 03:00Moderate Rain16°C9 mph, SW90%7462m1011hPa97%
27-Jun-2024 06:00Moderate Rain18°C11 mph, SW95%10000m1011hPa95%
27-Jun-2024 09:00Light Rain22°C9 mph, SW69%10000m1011hPa82%
27-Jun-2024 12:00Light Rain24°C9 mph, W82%10000m1011hPa69%
27-Jun-2024 15:00Light Rain24°C9 mph, W34%10000m1011hPa77%
27-Jun-2024 18:00Light Rain22°C4 mph, W21%10000m1012hPa85%
27-Jun-2024 21:00Light Rain18°C7 mph, SW4%10000m1014hPa92%
28-Jun-2024 00:00Scattered Clouds17°C7 mph, SW36%10000m1015hPa95%
28-Jun-2024 03:00Broken Clouds16°C7 mph, SW75%10000m1015hPa95%
28-Jun-2024 06:00Broken Clouds19°C7 mph, SW63%10000m1016hPa91%
28-Jun-2024 09:00Light Rain24°C7 mph, W0%10000m1016hPa77%
28-Jun-2024 12:00Scattered Clouds26°C4 mph, W48%10000m1016hPa67%
28-Jun-2024 15:00Light Rain26°C7 mph, N100%10000m1016hPa72%
28-Jun-2024 18:00Light Rain24°C7 mph, NE78%10000m1017hPa87%
28-Jun-2024 21:00Light Rain20°C4 mph, E45%10000m1017hPa94%
29-Jun-2024 00:00Scattered Clouds18°C4 mph, NE31%10000m1016hPa96%
29-Jun-2024 03:00Scattered Clouds18°C4 mph, E43%10000m1014hPa95%
29-Jun-2024 06:00Broken Clouds21°C4 mph, E60%10000m1013hPa90%
29-Jun-2024 09:00Broken Clouds25°C7 mph, E67%10000m1011hPa75%
29-Jun-2024 12:00Broken Clouds28°C9 mph, E76%10000m1009hPa66%
29-Jun-2024 15:00Overcast Clouds29°C7 mph, NE100%10000m1006hPa72%
29-Jun-2024 18:00Overcast Clouds25°C4 mph, N99%10000m1004hPa85%
29-Jun-2024 21:00Moderate Rain17°C9 mph, NW100%10000m1010hPa94%
30-Jun-2024 00:00Light Rain16°C9 mph, SW91%10000m1010hPa96%
30-Jun-2024 03:00Scattered Clouds17°C11 mph, SW35%10000m1010hPa94%
30-Jun-2024 06:00Light Rain17°C13 mph, SW60%10000m1011hPa92%
30-Jun-2024 09:00Light Rain17°C11 mph, SW100%10000m1012hPa91%